• Join FlightAware (Why Join?)
  • Login
  • US Flag 
05:16AM EDT


 

Airport Tracker/Info


-or-


 

Live Flight TrackerFlight Track Log ✈ VNR160 ✈ 26-Apr-2013 ✈ KINJ - KLFT

Flight Track Log - Related Links

Times and Time Zones

All times are in EDT time to prevent confusion due to time zone crossing. See the VNR160 flight status page for this flight to view local times or setup timezone preferences in your user account.

Time Position Orientation Groundspeed Altitude Reporting Facility
EDT Latitude Longitude Course Direction KTS MPH feet Rate Location/Type
08:03PM 32.0233 -96.9756 102° East 182 209 5,700  Level Houston Center
08:04PM 32.0014 -96.8939 108° East 245 282 7,000 1,320 Climbing Fort Worth Center
08:05PM 31.9822 -96.8183 107° East 255 293 8,500 1,620 Climbing Fort Worth Center
08:06PM 31.9589 -96.7375 109° East 263 303 10,300 1,800 Climbing Fort Worth Center
08:07PM 31.9370 -96.6697 113° Southeast  Level Estimated
08:07PM 31.9397 -96.6594 106° East 248 285 12,200  Level Fort Worth Center
08:08PM 31.9203 -96.5739 105° East 254 292 14,000 1,800 Climbing Fort Worth Center
08:09PM 31.9008 -96.4811 104° East 266 306 15,800 1,680 Climbing Fort Worth Center
08:10PM 31.8794 -96.3956 106° East 278 320 17,400 1,380 Climbing Fort Worth Center
08:11PM 31.8578 -96.3006 105° East 291 335 18,600 1,080 Climbing Fort Worth Center
08:12PM 31.8297 -96.1981 108° East 311 358 19,600 900 Climbing Fort Worth Center
08:13PM 31.8078 -96.1031 105° East 325 374 20,500 900 Climbing Fort Worth Center
08:14PM 31.7753 -95.9936 109° East 344 396 21,500 1,080 Climbing Fort Worth Center
08:15PM 31.7489 -95.8767 105° East 344 396 22,700 1,140 Climbing Fort Worth Center
08:16PM 31.7183 -95.7697 109° East 344 396 23,800 1,140 Climbing Fort Worth Center
08:17PM 31.6897 -95.6628 107° East 344 396 25,000 1,140 Climbing Fort Worth Center
08:18PM 31.6486 -95.5636 116° Southeast 338 389 26,100 1,140 Climbing Fort Worth Center
08:19PM 31.5931 -95.4694 125° Southeast 343 395 27,300 1,080 Climbing Fort Worth Center
08:22PM 31.4639 -95.2414 124° Southeast 347 399 30,000 240 Climbing Houston Center
08:23PM 31.4100 -95.1478 124° Southeast 347 399 28,300 480 Descending Houston Center
08:24PM 31.3542 -95.0508 124° Southeast 354 407 31,000 1,260 Climbing Houston Center
08:25PM 31.2947 -94.9478 124° Southeast 376 433 31,000  Level Houston Center
08:26PM 31.2342 -94.8447 124° Southeast 384 442 31,000  Level Houston Center
08:27PM 31.1669 -94.7242 123° Southeast 394 453 31,000  Level Houston Center
08:28PM 31.1217 -94.5981 113° Southeast 406 467 31,000 -180 Level Houston Center
08:29PM 31.0814 -94.4792 112° Southeast 400 460 30,700 -1,140 Descending Houston Center
08:30PM 31.0372 -94.3511 112° Southeast 419 482 28,700 -2,400 Descending Houston Center
08:31PM 30.9842 -94.1969 112° Southeast 427 491 25,800 -2,580 Descending Houston Center
08:32PM 30.9428 -94.0789 112° Southeast 407 468 23,400 -2,400 Descending Houston Center
08:33PM 30.9067 -93.9672 111° Southeast 378 435 20,900 -2,160 Descending Houston Center
08:34PM 30.8728 -93.8706 112° Southeast 332 382 19,000 -960 Descending Houston Center
08:35PM 30.8422 -93.7833 112° Southeast 301 346 19,000  Level Houston Center
08:36PM 30.8117 -93.6950 112° Southeast 293 337 19,000  Level Houston Center
08:37PM 30.7772 -93.5956 112° Southeast 319 367 19,000  Level Houston Center
08:38PM 30.7353 -93.4731 112° Southeast 335 386 19,000  Level Houston Center
08:39PM 30.6983 -93.3692 112° Southeast 342 394 19,000 -60 Level Houston Center
08:40PM 30.6622 -93.2658 112° Southeast 344 396 18,900 -660 Descending Houston Center
08:41PM 30.6258 -93.1633 112° Southeast 342 394 17,700 -1,080 Descending Houston Center
08:43PM 30.5897 -93.0639 113° Southeast 335 386 16,700 -1,080 Descending Houston Center
08:44PM 30.5556 -92.9661 112° Southeast 329 379 15,500 -1,200 Descending Houston Center
08:45PM 30.5217 -92.8681 112° Southeast 326 375 14,300 -1,200 Descending Houston Center
08:46PM 30.4881 -92.7733 112° Southeast 319 367 13,100 -1,260 Descending Houston Center
08:47PM 30.4483 -92.6631 113° Southeast 310 357 11,700 -1,080 Descending Houston Center
08:48PM 30.4147 -92.5694 113° Southeast 314 361 10,900 -420 Descending Houston Center
08:49PM 30.3831 -92.4797 112° Southeast 302 348 10,900 -480 Level Houston Center
08:50PM 30.3506 -92.3903 113° Southeast 301 346 10,000 -1,260 Descending Houston Center
08:51PM 30.3178 -92.3011 113° Southeast 295 339 8,300 -1,740 Descending Houston Center
08:52PM 30.3081 -92.2186 98° East 280 322 6,500 -1,860 Descending Houston Center
08:53PM 30.3239 -92.1403 77° East 255 293 4,600 -2,040 Descending Houston Center
08:54PM 30.3392 -92.0503 79° East 240 276 2,400 -1,320 Descending Houston Center
08:55PM 30.3303 -91.9875 99° East 232 267 1,900 -540 Descending Houston Center
08:57PM 30.2000 -91.9833 180° South  Level FlightAware Approximate
09:04PM 30.2050 -91.9877 180° South  Level Estimated
09:05PM 30.2000 -91.9833 180° South  Level FlightAware Approximate
09:06PM 30.2050 -91.9877 180° South  Level Estimated
09:07PM 30.2000 -91.9833 180° South  Level FlightAware Approximate